Time;durP1;ratioP1;P1;durP2;ratioP2;P2;SDS_P1;SDS_P2;PMS_P1;PMS_P2;Temp;Humidity;BMP_temperature;BMP_pressure;BME280_temperature;BME280_humidity;BME280_pressure;Samples;Min_cycle;Max_cycle;Signal;HPM_P1;HPM_P2
2023/01/10 00:00:36;;;;;;;22.80;3.25;;;;;;;6.02;98.25;101303.00;5025598;28;20080;-74
2023/01/10 00:03:07;;;;;;;30.15;3.45;;;;;;;5.99;99.14;101308.78;5021419;28;20040;-74
2023/01/10 00:05:34;;;;;;;21.08;3.85;;;;;;;6.00;97.61;101311.34;5024179;28;20013;-75
2023/01/10 00:08:01;;;;;;;21.98;2.78;;;;;;;6.05;98.03;101313.59;5024962;28;20033;-74
2023/01/10 00:10:27;;;;;;;26.88;2.75;;;;;;;6.02;98.84;101325.63;5018270;28;20116;-75
2023/01/10 00:15:37;;;;;;;22.02;3.58;;;;;;;6.15;100.00;101338.84;5022896;28;20079;-74
2023/01/10 00:18:03;;;;;;;16.42;3.00;;;;;;;6.12;100.00;101344.56;5019856;28;20111;-74
2023/01/10 00:20:28;;;;;;;21.10;3.67;;;;;;;6.17;100.00;101336.78;5014505;28;20037;-74
2023/01/10 00:22:54;;;;;;;17.63;4.75;;;;;;;6.28;100.00;101342.84;5022813;28;20132;-74
2023/01/10 00:25:20;;;;;;;17.23;2.85;;;;;;;6.21;100.00;101341.78;5025415;28;20030;-75
2023/01/10 00:27:52;;;;;;;25.83;3.10;;;;;;;6.24;100.00;101349.59;5025005;28;20159;-74
2023/01/10 00:30:18;;;;;;;26.48;3.47;;;;;;;6.26;100.00;101352.19;5026902;28;20070;-74
2023/01/10 00:32:44;;;;;;;32.40;4.68;;;;;;;6.31;100.00;101366.16;5028390;28;20033;-74
2023/01/10 00:35:10;;;;;;;30.33;5.17;;;;;;;6.36;100.00;101361.94;5023286;28;20033;-74
2023/01/10 00:37:37;;;;;;;13.57;2.83;;;;;;;6.39;100.00;101375.25;5027024;28;20052;-74
2023/01/10 00:40:06;;;;;;;29.25;3.40;;;;;;;6.39;100.00;101369.81;5024284;28;20060;-74
2023/01/10 00:45:18;;;;;;;24.13;4.03;;;;;;;6.30;100.00;101378.06;5025704;28;20087;-74
2023/01/10 00:47:44;;;;;;;20.52;3.60;;;;;;;6.30;100.00;101380.78;5021666;28;20129;-74
2023/01/10 00:50:10;;;;;;;19.13;3.42;;;;;;;6.43;100.00;101381.22;5024273;28;20120;-75
2023/01/10 00:52:36;;;;;;;18.83;3.17;;;;;;;6.39;100.00;101377.97;5024782;28;20018;-74
2023/01/10 00:55:01;;;;;;;22.98;3.53;;;;;;;6.36;100.00;101388.31;5029059;28;20450;-75
2023/01/10 00:57:26;;;;;;;18.45;3.25;;;;;;;6.41;100.00;101383.25;5028130;28;20035;-74
2023/01/10 00:59:52;;;;;;;19.30;3.30;;;;;;;6.42;100.00;101382.25;5030642;28;20461;-74
2023/01/10 01:02:17;;;;;;;24.50;3.53;;;;;;;6.36;100.00;101382.88;5023640;28;20056;-74
2023/01/10 01:04:42;;;;;;;19.38;3.78;;;;;;;6.33;100.00;101388.63;5031767;28;20029;-74
2023/01/10 01:07:08;;;;;;;21.77;3.15;;;;;;;6.36;100.00;101393.75;5030307;28;20036;-74
2023/01/10 01:09:33;;;;;;;32.42;3.90;;;;;;;6.39;100.00;101385.25;5024945;28;20040;-74
2023/01/10 01:11:58;;;;;;;22.08;3.83;;;;;;;6.42;100.00;101396.69;5024339;28;20025;-74
2023/01/10 01:14:24;;;;;;;22.05;3.25;;;;;;;6.56;100.00;101396.13;5024999;28;20032;-74
2023/01/10 01:16:50;;;;;;;27.00;4.35;;;;;;;6.47;100.00;101404.38;5018233;28;20034;-73
2023/01/10 01:19:16;;;;;;;22.95;3.95;;;;;;;6.54;100.00;101400.00;5031675;28;20024;-74
2023/01/10 01:21:41;;;;;;;32.85;5.45;;;;;;;6.63;100.00;101412.69;5023824;28;20043;-75
2023/01/10 01:24:09;;;;;;;22.00;3.22;;;;;;;6.62;100.00;101408.25;5033165;28;20056;-74
2023/01/10 01:26:34;;;;;;;32.05;3.55;;;;;;;6.63;100.00;101415.41;5026204;28;20029;-77
2023/01/10 01:29:00;;;;;;;21.73;3.80;;;;;;;6.75;99.98;101415.00;5026117;28;20421;-74
2023/01/10 01:31:25;;;;;;;26.20;4.22;;;;;;;6.76;99.78;101411.25;5021059;28;20033;-73
2023/01/10 01:33:51;;;;;;;33.17;4.20;;;;;;;6.79;100.00;101420.97;5021934;28;20032;-74
2023/01/10 01:36:16;;;;;;;29.98;3.50;;;;;;;6.77;100.00;101414.81;5021749;28;20040;-73
2023/01/10 01:38:41;;;;;;;27.10;3.60;;;;;;;6.82;99.12;101424.22;5028731;28;20072;-76
2023/01/10 01:41:55;;;;;;;29.00;4.25;;;;;;;6.71;100.00;101429.94;5025786;28;20278;-74
2023/01/10 01:44:05;;;;;;;21.77;4.30;;;;;;;6.65;100.00;101440.59;5026804;28;20555;-74
2023/01/10 01:46:34;;;;;;;28.23;4.35;;;;;;;6.66;100.00;101436.84;5022103;28;20044;-76
2023/01/10 01:49:00;;;;;;;29.10;3.75;;;;;;;6.77;99.96;101448.34;5022441;28;20065;-74
2023/01/10 01:51:29;;;;;;;23.25;3.10;;;;;;;6.75;99.13;101442.22;5021912;28;20585;-73
2023/01/10 01:54:06;;;;;;;29.63;4.45;;;;;;;6.79;98.86;101454.47;5028928;28;20040;-74
2023/01/10 01:56:41;;;;;;;28.10;3.95;;;;;;;6.65;100.00;101451.47;5025698;28;20037;-74
2023/01/10 01:59:27;;;;;;;25.75;3.70;;;;;;;6.66;100.00;101453.19;5025819;28;20116;-74
2023/01/10 02:01:58;;;;;;;29.88;4.18;;;;;;;6.81;98.97;101470.66;5013561;28;20033;-73
2023/01/10 02:04:30;;;;;;;27.77;3.92;;;;;;;6.80;99.12;101458.06;5021235;28;20029;-74
2023/01/10 02:06:57;;;;;;;22.80;3.47;;;;;;;6.82;99.54;101454.19;5022676;28;20118;-74
2023/01/10 02:09:39;;;;;;;27.55;4.28;;;;;;;6.85;98.77;101461.19;5026568;28;20469;-74
2023/01/10 02:12:06;;;;;;;33.10;4.85;;;;;;;6.76;99.22;101465.72;5018177;28;20041;-74
2023/01/10 02:14:33;;;;;;;36.97;5.15;;;;;;;6.76;99.41;101452.09;5024555;28;20014;-73
2023/01/10 02:16:58;;;;;;;31.83;4.47;;;;;;;6.79;98.91;101459.09;5025862;28;20481;-74
2023/01/10 02:19:42;;;;;;;19.83;3.63;;;;;;;6.89;98.24;101449.78;5021616;28;20022;-75
2023/01/10 02:22:38;;;;;;;29.65;4.07;;;;;;;6.92;98.53;101446.78;5026596;28;20026;-76
2023/01/10 02:25:39;;;;;;;31.80;4.00;;;;;;;6.82;98.40;101456.91;5021779;28;20426;-76
2023/01/10 02:28:50;;;;;;;28.02;4.00;;;;;;;6.83;99.05;101463.22;5017982;28;20033;-74
2023/01/10 02:31:33;;;;;;;35.45;4.97;;;;;;;6.88;98.44;101450.81;5024797;28;20017;-74
2023/01/10 02:34:30;;;;;;;31.45;3.60;;;;;;;6.80;98.48;101461.66;5021331;28;20033;-73
2023/01/10 02:37:11;;;;;;;28.63;4.70;;;;;;;6.79;99.09;101459.94;5022677;28;20492;-74
2023/01/10 02:39:36;;;;;;;21.60;3.35;;;;;;;6.78;99.08;101468.28;5017035;28;20115;-74
2023/01/10 02:42:14;;;;;;;27.27;4.70;;;;;;;6.75;98.76;101471.28;5024620;28;20488;-74
2023/01/10 02:44:49;;;;;;;34.70;3.53;;;;;;;6.75;99.53;101471.28;5023711;28;20477;-76
2023/01/10 02:47:15;;;;;;;33.80;4.68;;;;;;;6.81;99.31;101476.09;5022998;28;20041;-76
2023/01/10 02:49:46;;;;;;;34.42;4.65;;;;;;;6.74;99.34;101485.94;5027531;28;20381;-74
2023/01/10 02:52:24;;;;;;;36.08;4.55;;;;;;;6.77;99.22;101482.88;5031046;28;20135;-74
2023/01/10 02:54:54;;;;;;;40.10;5.40;;;;;;;6.73;99.30;101476.06;5022697;28;20018;-73
2023/01/10 02:57:38;;;;;;;27.98;4.18;;;;;;;6.72;98.76;101485.25;5024017;28;20119;-74
2023/01/10 03:00:06;;;;;;;34.28;5.25;;;;;;;6.65;99.61;101493.16;5024692;28;20397;-75
2023/01/10 03:02:52;;;;;;;31.85;5.00;;;;;;;6.56;99.81;101493.25;5024703;28;20542;-74
2023/01/10 03:05:29;;;;;;;27.15;4.32;;;;;;;6.54;100.00;101489.81;5025692;28;20040;-74
2023/01/10 03:08:09;;;;;;;27.27;3.78;;;;;;;6.50;100.00;101491.13;5017073;28;20109;-75
2023/01/10 03:10:50;;;;;;;32.03;4.72;;;;;;;6.46;100.00;101500.66;5022276;28;20044;-74
2023/01/10 03:13:25;;;;;;;21.65;4.05;;;;;;;6.40;100.00;101498.53;5018435;28;20038;-77
2023/01/10 03:15:52;;;;;;;30.80;3.90;;;;;;;6.36;100.00;101505.28;5024194;28;20080;-76
2023/01/10 03:18:23;;;;;;;25.65;3.40;;;;;;;6.42;100.00;101515.56;5021321;28;20108;-76
2023/01/10 03:20:51;;;;;;;34.85;4.97;;;;;;;6.44;100.00;101514.41;5049512;28;20022;-78
2023/01/10 03:23:17;;;;;;;36.80;5.82;;;;;;;6.37;100.00;101509.72;5030280;28;20041;-78
2023/01/10 03:25:44;;;;;;;32.38;3.45;;;;;;;6.43;100.00;101518.13;5018330;28;20044;-77
2023/01/10 03:28:15;;;;;;;29.77;4.55;;;;;;;6.45;100.00;101523.41;5019363;28;20366;-77
2023/01/10 03:30:56;;;;;;;33.45;3.88;;;;;;;6.40;100.00;101517.59;5023433;28;20021;-78
2023/01/10 03:33:28;;;;;;;37.13;4.68;;;;;;;6.42;100.00;101521.84;5024960;28;20029;-78
2023/01/10 03:36:08;;;;;;;33.72;4.95;;;;;;;6.43;100.00;101518.13;5024085;28;20663;-78
2023/01/10 03:38:49;;;;;;;40.00;5.90;;;;;;;6.51;100.00;101520.09;5025559;28;20040;-78
2023/01/10 03:41:33;;;;;;;24.35;4.88;;;;;;;6.51;100.00;101533.69;5026119;28;20029;-74
2023/01/10 03:46:53;;;;;;;27.60;4.65;;;;;;;6.53;100.00;101535.25;5026384;28;20072;-74
2023/01/10 03:49:21;;;;;;;28.35;5.60;;;;;;;6.56;100.00;101542.25;5026670;28;20052;-75
2023/01/10 03:51:48;;;;;;;31.33;4.88;;;;;;;6.62;100.00;101539.75;5023697;28;20120;-74
2023/01/10 03:54:15;;;;;;;35.55;5.22;;;;;;;6.61;100.00;101540.75;5024729;28;20142;-74
2023/01/10 03:56:49;;;;;;;38.97;5.50;;;;;;;6.60;100.00;101552.66;5019866;28;20327;-73
2023/01/10 03:59:21;;;;;;;32.10;4.65;;;;;;;6.59;99.97;101552.81;5021042;28;20029;-74
2023/01/10 04:01:47;;;;;;;34.13;4.75;;;;;;;6.52;100.00;101559.88;5016843;28;20029;-74
2023/01/10 04:04:12;;;;;;;35.50;4.18;;;;;;;6.47;100.00;101556.78;5027997;28;20037;-75
2023/01/10 04:06:37;;;;;;;34.20;6.60;;;;;;;6.50;100.00;101560.03;5029894;28;20480;-76
2023/01/10 04:09:03;;;;;;;36.65;4.70;;;;;;;6.49;100.00;101557.47;5019721;28;20022;-73
2023/01/10 04:11:28;;;;;;;45.45;5.85;;;;;;;6.45;100.00;101554.19;5016632;28;20041;-74
2023/01/10 04:13:54;;;;;;;29.38;4.65;;;;;;;6.44;100.00;101540.75;5021067;28;20064;-74
2023/01/10 04:16:19;;;;;;;26.17;3.83;;;;;;;6.36;100.00;101541.50;5023554;28;20079;-75
2023/01/10 04:18:45;;;;;;;35.10;6.38;;;;;;;6.35;100.00;101542.50;5024774;28;20029;-75
2023/01/10 04:21:10;;;;;;;22.40;4.40;;;;;;;6.34;100.00;101557.13;5022180;28;20022;-74
2023/01/10 04:23:36;;;;;;;35.15;5.00;;;;;;;6.35;100.00;101556.13;5023181;28;20017;-74
2023/01/10 04:26:01;;;;;;;38.65;5.85;;;;;;;6.28;100.00;101560.47;5026545;28;20488;-76
2023/01/10 04:28:27;;;;;;;39.95;4.85;;;;;;;6.22;100.00;101581.97;5021960;28;20025;-74
2023/01/10 04:30:52;;;;;;;33.70;5.03;;;;;;;6.26;100.00;101603.28;5024394;28;20513;-74
2023/01/10 04:33:18;;;;;;;43.15;5.07;;;;;;;6.24;100.00;101599.84;5019293;28;20021;-74
2023/01/10 04:35:48;;;;;;;34.17;5.53;;;;;;;6.21;100.00;101580.25;5019260;28;20485;-75
2023/01/10 04:38:13;;;;;;;30.92;5.55;;;;;;;6.20;100.00;101570.41;5025204;28;20044;-74
2023/01/10 04:40:39;;;;;;;43.70;8.25;;;;;;;6.22;100.00;101573.81;5018634;28;20118;-74
2023/01/10 04:43:04;;;;;;;38.78;5.55;;;;;;;6.19;100.00;101579.56;5024816;28;20509;-74
2023/01/10 04:45:29;;;;;;;43.03;5.93;;;;;;;6.29;100.00;101580.34;5020682;28;20022;-74
2023/01/10 04:47:55;;;;;;;43.13;5.10;;;;;;;6.28;100.00;101581.38;5020897;28;20053;-76
2023/01/10 04:50:22;;;;;;;41.55;5.30;;;;;;;6.21;100.00;101593.88;5020695;28;20446;-74
2023/01/10 04:52:48;;;;;;;36.92;5.47;;;;;;;6.23;100.00;101592.72;5023870;28;20036;-75
2023/01/10 04:55:13;;;;;;;30.83;4.60;;;;;;;6.22;100.00;101601.00;5021524;28;20021;-75
2023/01/10 04:57:38;;;;;;;40.83;6.25;;;;;;;6.34;100.00;101610.69;5020351;28;20032;-74
2023/01/10 05:00:04;;;;;;;31.40;4.28;;;;;;;6.24;100.00;101624.34;5024301;28;20029;-74
2023/01/10 05:02:30;;;;;;;39.00;6.38;;;;;;;6.30;100.00;101625.63;5026199;28;20108;-74
2023/01/10 05:04:55;;;;;;;28.63;6.28;;;;;;;6.22;100.00;101625.50;5023244;28;20125;-74
2023/01/10 05:07:21;;;;;;;48.83;5.82;;;;;;;6.22;100.00;101641.81;5020053;28;20030;-74
2023/01/10 05:09:46;;;;;;;41.13;5.05;;;;;;;6.26;100.00;101640.50;5018904;28;20393;-74
2023/01/10 05:12:11;;;;;;;37.67;6.85;;;;;;;6.24;100.00;101632.50;5028267;28;20053;-74
2023/01/10 05:14:37;;;;;;;39.50;5.65;;;;;;;6.22;100.00;101628.22;5026090;28;20026;-74
2023/01/10 05:17:02;;;;;;;42.78;5.03;;;;;;;6.23;100.00;101633.50;5027364;28;20040;-75
2023/01/10 05:19:27;;;;;;;44.58;6.05;;;;;;;6.26;100.00;101629.63;5027844;28;20052;-74
2023/01/10 05:21:53;;;;;;;35.70;5.93;;;;;;;6.30;100.00;101628.34;5028246;28;20079;-74
2023/01/10 05:24:18;;;;;;;34.78;4.72;;;;;;;6.17;100.00;101633.25;5026200;28;20071;-75
2023/01/10 05:26:44;;;;;;;44.00;5.03;;;;;;;6.24;100.00;101639.81;5027367;28;20029;-75
2023/01/10 05:29:10;;;;;;;43.83;5.75;;;;;;;6.22;100.00;101630.94;5027559;28;20144;-74
2023/01/10 05:31:35;;;;;;;32.75;4.75;;;;;;;6.29;100.00;101640.19;5025091;28;20105;-73
2023/01/10 05:34:01;;;;;;;34.42;5.03;;;;;;;6.31;100.00;101651.81;5026576;28;20163;-75
2023/01/10 05:36:26;;;;;;;34.97;5.93;;;;;;;6.30;100.00;101653.66;5027452;28;20452;-76
2023/01/10 05:38:52;;;;;;;41.70;4.90;;;;;;;6.34;100.00;101670.53;5027636;28;20550;-75
2023/01/10 05:41:17;;;;;;;35.10;5.82;;;;;;;6.31;100.00;101654.53;5029267;28;20108;-74
2023/01/10 05:43:43;;;;;;;40.83;5.10;;;;;;;6.31;100.00;101670.84;5026183;28;20100;-74
2023/01/10 05:46:08;;;;;;;37.78;4.65;;;;;;;6.27;100.00;101664.84;5023270;28;20036;-75
2023/01/10 05:48:34;;;;;;;38.33;6.00;;;;;;;6.26;100.00;101671.28;5024124;28;20069;-74
2023/01/10 05:51:00;;;;;;;44.45;6.47;;;;;;;6.28;100.00;101680.16;5021717;28;20486;-74
2023/01/10 05:53:26;;;;;;;45.13;6.40;;;;;;;6.28;100.00;101679.28;5026000;28;20502;-74
2023/01/10 05:55:56;;;;;;;27.95;5.30;;;;;;;6.27;100.00;101689.34;5031238;28;20130;-75
2023/01/10 05:58:22;;;;;;;45.03;6.03;;;;;;;6.23;100.00;101685.19;5029583;28;20037;-74
2023/01/10 06:00:48;;;;;;;41.38;5.53;;;;;;;6.14;100.00;101677.06;5023520;28;20052;-75
2023/01/10 06:03:14;;;;;;;25.58;4.00;;;;;;;6.07;100.00;101684.97;5025308;28;20461;-74
2023/01/10 06:05:39;;;;;;;34.05;5.18;;;;;;;5.97;100.00;101685.97;5022579;28;20026;-74
2023/01/10 06:08:04;;;;;;;36.55;4.72;;;;;;;5.92;100.00;101681.00;5023724;28;20808;-75
2023/01/10 06:10:30;;;;;;;34.55;5.03;;;;;;;5.88;100.00;101689.59;5038544;28;20435;-74
2023/01/10 06:12:55;;;;;;;58.13;7.72;;;;;;;5.91;100.00;101689.28;5022209;28;20110;-75
2023/01/10 06:15:21;;;;;;;40.50;6.70;;;;;;;5.83;100.00;101686.47;5020887;28;20025;-73
2023/01/10 06:17:46;;;;;;;34.47;4.88;;;;;;;5.77;100.00;101687.03;5022610;28;20029;-74
2023/01/10 06:20:12;;;;;;;34.00;5.35;;;;;;;5.75;100.00;101686.28;5023930;28;20164;-76
2023/01/10 06:22:41;;;;;;;45.53;6.00;;;;;;;5.70;100.00;101670.44;5018866;28;20036;-75
2023/01/10 06:25:08;;;;;;;41.03;5.53;;;;;;;5.62;100.00;101666.72;5019783;28;20104;-74
2023/01/10 06:27:34;;;;;;;36.67;5.50;;;;;;;5.55;100.00;101698.22;5038702;28;20378;-73
2023/01/10 06:30:00;;;;;;;35.53;5.15;;;;;;;5.55;100.00;101701.75;5027874;28;20032;-74
2023/01/10 06:32:26;;;;;;;40.25;5.55;;;;;;;5.56;100.00;101694.47;5026132;28;20029;-73
2023/01/10 06:34:52;;;;;;;34.78;6.10;;;;;;;5.48;100.00;101699.75;5025737;28;20037;-73
2023/01/10 06:37:17;;;;;;;29.98;6.07;;;;;;;5.39;100.00;101704.22;5021876;28;20120;-72
2023/01/10 06:39:45;;;;;;;34.70;6.20;;;;;;;5.37;100.00;101703.50;5025916;28;20029;-73
2023/01/10 06:42:10;;;;;;;40.28;5.38;;;;;;;5.35;100.00;101712.78;5027137;28;20033;-73
2023/01/10 06:44:35;;;;;;;31.70;7.00;;;;;;;5.40;100.00;101722.22;5027716;28;20106;-73
2023/01/10 06:47:01;;;;;;;36.33;6.10;;;;;;;5.50;100.00;101741.25;5029291;28;20053;-73
2023/01/10 06:49:26;;;;;;;35.97;7.30;;;;;;;5.51;100.00;101735.66;5033119;28;20145;-73
2023/01/10 06:51:52;;;;;;;40.22;7.13;;;;;;;5.51;100.00;101740.25;5027704;28;20099;-73
2023/01/10 06:54:17;;;;;;;37.55;5.63;;;;;;;5.52;100.00;101748.25;5029414;28;20029;-72
2023/01/10 06:56:43;;;;;;;40.67;6.45;;;;;;;5.53;100.00;101747.25;5027815;28;20024;-72
2023/01/10 06:59:08;;;;;;;32.85;5.97;;;;;;;5.57;100.00;101755.97;5025751;28;20562;-73
2023/01/10 07:01:34;;;;;;;41.25;6.13;;;;;;;5.56;100.00;101760.53;5028210;28;20556;-73
2023/01/10 07:03:59;;;;;;;44.05;6.75;;;;;;;5.56;100.00;101756.97;5026346;28;20041;-72
2023/01/10 07:06:25;;;;;;;35.92;7.25;;;;;;;5.55;100.00;101756.09;5026795;28;20090;-73
2023/01/10 07:08:50;;;;;;;39.35;6.72;;;;;;;5.55;100.00;101774.28;5024850;28;20025;-73
2023/01/10 07:11:16;;;;;;;41.28;7.55;;;;;;;5.53;100.00;101779.84;5027143;28;20028;-73
2023/01/10 07:13:42;;;;;;;35.65;7.20;;;;;;;5.48;100.00;101774.00;5023481;28;20025;-73
2023/01/10 07:16:13;;;;;;;28.50;5.80;;;;;;;5.43;100.00;101791.69;5021592;28;20041;-73
2023/01/10 07:18:39;;;;;;;39.10;7.60;;;;;;;5.45;100.00;101789.72;5020696;28;20334;-74
2023/01/10 07:21:06;;;;;;;30.33;6.32;;;;;;;5.38;100.00;101793.97;5025233;28;20036;-74
2023/01/10 07:23:31;;;;;;;38.50;7.67;;;;;;;5.37;100.00;101797.69;5028247;28;20028;-73
2023/01/10 07:25:57;;;;;;;41.25;6.93;;;;;;;5.33;100.00;101807.13;5021096;28;20026;-73
2023/01/10 07:28:23;;;;;;;41.83;7.22;;;;;;;5.32;100.00;101810.84;5030496;28;20028;-73
2023/01/10 07:30:48;;;;;;;43.53;7.55;;;;;;;5.31;100.00;101806.41;5019331;28;20041;-74
2023/01/10 07:33:14;;;;;;;37.85;7.70;;;;;;;5.25;100.00;101812.41;5023871;28;20041;-75
2023/01/10 07:35:40;;;;;;;44.45;7.82;;;;;;;5.25;100.00;101804.25;5028348;28;20480;-73
2023/01/10 07:38:07;;;;;;;44.58;8.80;;;;;;;5.21;100.00;101810.97;5027710;28;20044;-75
2023/01/10 07:40:33;;;;;;;37.45;7.25;;;;;;;5.19;100.00;101807.53;5018011;28;20188;-75
2023/01/10 07:43:00;;;;;;;36.30;8.23;;;;;;;5.17;100.00;101806.81;5024191;28;20045;-74
2023/01/10 07:45:27;;;;;;;38.97;7.88;;;;;;;5.11;100.00;101807.38;5022294;28;20033;-73
2023/01/10 07:47:59;;;;;;;44.92;9.15;;;;;;;5.12;100.00;101817.25;5022644;28;20429;-73
2023/01/10 07:50:29;;;;;;;45.33;8.45;;;;;;;5.12;100.00;101814.53;5023370;28;20045;-72
2023/01/10 07:52:55;;;;;;;45.70;6.78;;;;;;;5.15;100.00;101809.69;5021585;28;20492;-74
2023/01/10 07:55:21;;;;;;;53.88;8.50;;;;;;;5.15;100.00;101814.25;5023009;28;20545;-74
2023/01/10 07:57:49;;;;;;;36.28;7.88;;;;;;;5.13;100.00;101799.97;5025501;28;20468;-74
2023/01/10 08:00:15;;;;;;;49.95;7.00;;;;;;;5.11;100.00;101810.06;5024789;28;20105;-75
2023/01/10 08:02:40;;;;;;;31.90;8.20;;;;;;;5.09;100.00;101793.09;5023110;28;20021;-73
2023/01/10 08:05:06;;;;;;;41.85;7.53;;;;;;;5.02;100.00;101809.06;5021899;28;20489;-76
2023/01/10 08:07:31;;;;;;;37.10;7.25;;;;;;;5.01;100.00;101803.75;5024372;28;20064;-74
2023/01/10 08:09:57;;;;;;;36.83;7.38;;;;;;;5.01;100.00;101790.19;5019730;28;20180;-76
2023/01/10 08:12:23;;;;;;;34.58;7.85;;;;;;;5.00;100.00;101810.19;5023489;28;20052;-73
2023/01/10 08:14:50;;;;;;;46.25;9.07;;;;;;;5.03;100.00;101815.34;5018851;28;20029;-75
2023/01/10 08:17:15;;;;;;;34.78;7.93;;;;;;;5.10;100.00;101811.09;5012386;28;20037;-74
2023/01/10 08:19:41;;;;;;;41.13;8.27;;;;;;;5.10;100.00;101817.38;5024105;28;20026;-74
2023/01/10 08:22:06;;;;;;;32.47;7.35;;;;;;;5.14;100.00;101817.97;5020601;28;20026;-75
2023/01/10 08:24:31;;;;;;;35.42;6.63;;;;;;;5.22;100.00;101812.69;5025731;28;20025;-74
2023/01/10 08:26:57;;;;;;;55.47;10.77;;;;;;;5.19;100.00;101805.66;5022251;28;20571;-75
2023/01/10 08:29:23;;;;;;;32.75;8.02;;;;;;;5.23;100.00;101800.84;5022437;28;20598;-73
2023/01/10 08:31:49;;;;;;;46.40;7.68;;;;;;;5.27;100.00;101804.97;5021278;28;20025;-74
2023/01/10 08:34:14;;;;;;;32.80;6.90;;;;;;;5.29;100.00;101797.56;5018542;28;20525;-74
2023/01/10 08:36:39;;;;;;;38.25;7.30;;;;;;;5.31;100.00;101806.41;5024651;28;20041;-74
2023/01/10 08:39:05;;;;;;;29.92;5.72;;;;;;;5.32;100.00;101805.41;5023185;28;20112;-74
2023/01/10 08:41:30;;;;;;;32.10;6.97;;;;;;;5.36;100.00;101796.00;5023008;28;20504;-74
2023/01/10 08:43:56;;;;;;;47.95;9.40;;;;;;;5.33;100.00;101804.41;5018100;28;20737;-74
2023/01/10 08:46:21;;;;;;;49.60;7.20;;;;;;;5.31;100.00;101800.97;5027273;28;20087;-74
2023/01/10 08:48:49;;;;;;;42.30;7.60;;;;;;;5.31;100.00;101799.13;5028726;28;20347;-74
2023/01/10 08:51:15;;;;;;;50.72;6.93;;;;;;;5.35;100.00;101810.56;5031463;28;20475;-74
2023/01/10 08:53:41;;;;;;;43.25;7.55;;;;;;;5.33;100.00;101798.97;5031375;28;20109;-73
2023/01/10 08:56:06;;;;;;;39.25;6.32;;;;;;;5.34;100.00;101793.41;5032154;28;20430;-75
2023/01/10 08:58:32;;;;;;;37.00;8.05;;;;;;;5.38;100.00;101796.69;5030837;28;20060;-75
2023/01/10 09:00:57;;;;;;;31.70;5.82;;;;;;;5.26;100.00;101793.28;5026070;28;20112;-73
2023/01/10 09:03:23;;;;;;;29.15;6.18;;;;;;;5.28;100.00;101810.28;5025885;28;20034;-74
2023/01/10 09:05:48;;;;;;;45.28;6.22;;;;;;;5.28;100.00;101807.56;5026795;28;20044;-74
2023/01/10 09:08:14;;;;;;;36.88;7.80;;;;;;;5.28;100.00;101809.44;5025003;28;20526;-73
2023/01/10 09:10:40;;;;;;;33.10;6.82;;;;;;;5.24;100.00;101797.97;5025439;28;20054;-75
2023/01/10 09:13:06;;;;;;;35.67;7.45;;;;;;;5.26;100.00;101800.53;5026616;28;20064;-75
2023/01/10 09:15:34;;;;;;;41.05;5.65;;;;;;;5.19;100.00;101802.09;5028620;28;20499;-73
2023/01/10 09:18:05;;;;;;;45.55;6.60;;;;;;;5.22;100.00;101794.53;5030595;28;20494;-73
2023/01/10 09:20:36;;;;;;;47.53;6.13;;;;;;;5.14;100.00;101801.66;5029616;28;20380;-73
2023/01/10 09:23:07;;;;;;;42.13;6.85;;;;;;;5.13;100.00;101794.53;5026426;28;20101;-74
2023/01/10 09:25:33;;;;;;;37.45;6.45;;;;;;;5.17;100.00;101783.22;5027908;28;20029;-73
2023/01/10 09:28:00;;;;;;;37.50;6.45;;;;;;;5.13;100.00;101778.25;5025718;28;20136;-73
2023/01/10 09:30:27;;;;;;;46.15;8.07;;;;;;;5.22;100.00;101785.53;5026607;28;20030;-73
2023/01/10 09:32:54;;;;;;;34.40;6.28;;;;;;;5.18;100.00;101782.22;5021676;28;20037;-74
2023/01/10 09:35:20;;;;;;;43.75;7.22;;;;;;;5.22;100.00;101783.69;5026391;28;20466;-74
2023/01/10 09:37:45;;;;;;;30.00;5.73;;;;;;;5.24;100.00;101770.81;5024687;28;20041;-74
2023/01/10 09:40:41;;;;;;;34.92;6.00;;;;;;;5.21;100.00;101773.81;5027934;28;20385;-75
2023/01/10 09:43:14;;;;;;;42.75;5.93;;;;;;;5.22;100.00;101780.97;5010394;28;20075;-74
2023/01/10 09:46:01;;;;;;;36.60;5.40;;;;;;;5.30;100.00;101782.97;5024383;28;20332;-74
2023/01/10 09:48:47;;;;;;;36.35;6.47;;;;;;;5.30;100.00;101780.25;5026116;28;20053;-73
2023/01/10 09:51:28;;;;;;;41.88;5.85;;;;;;;5.29;100.00;101792.97;5026781;28;20018;-74
2023/01/10 09:53:58;;;;;;;26.45;4.68;;;;;;;5.35;100.00;101786.97;5025298;28;20029;-75
2023/01/10 09:56:24;;;;;;;29.33;6.15;;;;;;;5.33;100.00;101785.38;5026236;28;20033;-74
2023/01/10 09:58:50;;;;;;;30.58;5.88;;;;;;;5.32;100.00;101781.84;5026376;28;20430;-73
2023/01/10 10:01:20;;;;;;;35.88;5.32;;;;;;;5.36;100.00;101779.69;5026045;28;20025;-74
2023/01/10 10:04:05;;;;;;;37.72;5.53;;;;;;;5.39;100.00;101780.25;5019834;28;20026;-73
2023/01/10 10:06:33;;;;;;;28.30;4.22;;;;;;;5.41;100.00;101775.56;5029448;28;20567;-73
2023/01/10 10:08:59;;;;;;;25.80;4.90;;;;;;;5.47;100.00;101772.28;5021204;28;20030;-75
2023/01/10 10:11:24;;;;;;;41.15;7.22;;;;;;;5.48;100.00;101778.56;5024125;28;20029;-73
2023/01/10 10:14:10;;;;;;;37.50;5.13;;;;;;;5.51;100.00;101772.84;5024956;28;20079;-73
2023/01/10 10:17:13;;;;;;;27.50;5.15;;;;;;;5.58;99.37;101763.13;5023680;28;20021;-73
2023/01/10 10:20:12;;;;;;;28.00;5.47;;;;;;;5.54;100.00;101762.56;5023833;28;20518;-73
2023/01/10 10:22:47;;;;;;;36.10;5.05;;;;;;;5.59;99.29;101764.81;5023286;28;20022;-74
2023/01/10 10:25:27;;;;;;;30.35;5.72;;;;;;;5.55;99.98;101756.09;5023002;28;20033;-74
2023/01/10 10:28:31;;;;;;;24.02;5.43;;;;;;;5.58;99.53;101741.38;5021322;28;20033;-74
2023/01/10 10:31:15;;;;;;;40.83;5.85;;;;;;;5.64;100.00;101740.81;5023310;28;20050;-73
2023/01/10 10:34:04;;;;;;;32.20;5.32;;;;;;;5.67;100.00;101740.53;5022366;28;20033;-74
2023/01/10 10:36:37;;;;;;;34.05;5.68;;;;;;;5.72;99.54;101733.63;5025969;28;20025;-74
2023/01/10 10:39:05;;;;;;;36.30;5.20;;;;;;;5.69;99.78;101728.50;5022125;28;20045;-74
2023/01/10 10:41:38;;;;;;;34.53;5.88;;;;;;;5.81;99.71;101724.66;5025181;28;20111;-74
2023/01/10 10:44:39;;;;;;;34.72;5.40;;;;;;;5.85;99.89;101726.09;5022346;28;20033;-74
2023/01/10 10:47:17;;;;;;;34.90;5.22;;;;;;;5.86;99.42;101711.50;5024530;28;20132;-75
2023/01/10 10:49:50;;;;;;;;;;;;;;;5.83;99.89;101710.94;5023379;28;20121;-73
2023/01/10 10:52:26;;;;;;;28.38;4.45;;;;;;;5.88;99.92;101701.31;5025621;28;19943;-74
2023/01/10 10:54:52;;;;;;;33.83;5.15;;;;;;;5.98;99.44;101701.31;5025178;28;20072;-73
2023/01/10 10:57:22;;;;;;;38.05;5.68;;;;;;;6.01;99.02;101693.72;5023556;28;20028;-74
2023/01/10 10:59:48;;;;;;;32.30;6.18;;;;;;;5.97;99.47;101691.41;5018646;28;20080;-73
2023/01/10 11:02:42;;;;;;;28.88;5.25;;;;;;;6.02;99.28;101683.69;5015065;28;20047;-74
2023/01/10 11:05:16;;;;;;;38.90;5.32;;;;;;;6.02;98.89;101692.69;5018427;28;20328;-73
2023/01/10 11:07:43;;;;;;;19.48;5.03;;;;;;;6.03;98.94;101686.25;5022490;28;20101;-74
2023/01/10 11:10:35;;;;;;;22.50;4.47;;;;;;;6.10;98.91;101687.38;5022989;28;20037;-75
2023/01/10 11:13:44;;;;;;;34.22;5.18;;;;;;;6.09;99.35;101674.78;5023894;28;20044;-74
2023/01/10 11:16:23;;;;;;;28.00;4.38;;;;;;;6.17;98.67;101679.47;5019285;28;20029;-75
2023/01/10 11:19:09;;;;;;;19.30;4.22;;;;;;;6.11;98.66;101669.19;5025077;28;20472;-74
2023/01/10 11:21:35;;;;;;;35.33;5.18;;;;;;;6.13;98.51;101675.34;5024949;28;20033;-74
2023/01/10 11:24:00;;;;;;;31.00;4.93;;;;;;;6.14;98.29;101661.59;5025270;28;20026;-74
2023/01/10 11:26:34;;;;;;;21.80;4.38;;;;;;;6.29;98.39;101651.06;5024808;28;20036;-74
2023/01/10 11:29:28;;;;;;;26.00;4.45;;;;;;;6.27;98.94;101655.81;5024742;28;20488;-74
2023/01/10 11:31:55;;;;;;;34.25;5.18;;;;;;;6.31;98.76;101654.53;5022453;28;20472;-74
2023/01/10 11:34:32;;;;;;;27.67;6.93;;;;;;;6.26;98.28;101640.50;5025405;28;20060;-74
2023/01/10 11:37:01;;;;;;;26.13;4.30;;;;;;;6.26;99.24;101645.94;5020850;28;20026;-74
2023/01/10 11:39:29;;;;;;;26.33;4.85;;;;;;;6.27;98.57;101643.09;5022349;28;20432;-74